Detall de PIREP

Printer-friendly versionPDF version

[2010/05/06 07:01:00]
Flight IATA:CT2110
Pilot Number:041
Company ICAO:CAT
Aircraft Type:F70/A
PAX:75
Departing Airport: LEVC
Destination Airport: LEST
Alternate Airport:LECO
Online: VATSIM
Route:CENTA A33 PRADO A33 CJN A33 HORTA A33 MAGIN A33 INDEG A33 DISKO A33 ZMR A33 BARKO
Flight Level:FL230
No Slew and time accel
No pause
Crash detect
Detect pilot in Cockpit between each 30 and 45 minutes
07:01 Zero fuel Weight: 71022 Lbs, Fuel Weight: 12372 Lbs
07:01 VATSIM:LEVC 060630Z 29008KT CAVOK 12/02 Q1010 NOSIG
07:01 VATSIM:LEST 060630Z 05003KT 010V080 9999 FEW030 06/03 Q1014 NOSIG
07:01 VOICE CATALONIAN
07:03 Parking Brakes off
07:09 Take-off
07:09 Take off Weight: 83002 Lbs
07:09 Wind: 289º @ 008 Knots Heading: 296º
07:09 POS N39º 29´ 30´´ W000º 29´ 16´´
07:09 Gear Up: 200 Knots
07:09 Flaps:1 at 201 Knots
07:09 Flaps:0 at 238 Knots
07:24 Wind:296º@007 Knots Headin
g: 298º Ground Speed: 378 Knots Altitude 21558 ft
07:24 TOC
07:24 Fuel Weight: 10195 Lb
07:39 Wind:172º@002 Knots Heading: 296º Ground Speed: 408 Knots Altitude 22959 ft
07:47 TOD
07:47 Fuel Weight: 8212 Lb
07:54 Wind:064º@011 Knots Heading: 306º Ground Speed: 358 Knots Altitude 17214 ft
08:09 Wind:063º@003 Knots Heading: 281º Ground Speed: 278 Knots Altitude 9019 ft
08:18 Flaps:1 at 241 Knots
08:24 Wind:063º@007 Knots Heading: 346º Ground Speed: 300 Knots Altitude 4504 ft
08:24 Flaps:2 at 259 Knots
08:24 Flaps:3 at 241 Knots
08:24 Gear Down: 222 Knots
08:24 Flaps:4 at 187 Knots
08:26 TouchDown:Rate -448 ft/min Speed: 111 Knots
08:26 VATSIM:LEST 060800Z 07007KT 020V110 9999 FEW030 09/04 Q1014 NOSIG
08:26 Land
08:26 Wind:069º@007 Knots
08:26 Heading: 345º
08:26 Flight Duration: 01:17
08:26 Landing Weight: 76882 Lbs
08:26 POS N42º 53´ 22´´ W008º 24´ 46´´
0
8:29 Parking brakes on
08:29 Block to Block Duration: 01:26
08:29 Final Fuel: 5767 Lbls
08:29 Spent Fuel: 6604 Lbls
08:29 Flight Length: 422 NM
08:29 TOD Land Length: 191 NM

Exportar CSV

Powered by Drupal - Modified by Danger4k